Terminal Aerodrome Forecast
Issued by NWS Twin Cities, MN

Home | Current Version | Previous Version | Text Only | Print | Product List | Glossary On
Versions: 1 2 3 4 5 6 7 8 9 10 11 12 13 14 15 16
000
FTUS43 KMPX 261100
TAFEAU
TAF
KEAU 261125Z 2612/2712 19005KT 6SM BR BKN006
     FM261400 28004KT P6SM SCT015 SCT120
      TEMPO 2614/2616 BKN015
     FM261700 27007KT P6SM SCT035 BKN150
     FM270300 26006KT P6SM VCSH SCT060 BKN250
     FM270500 27009KT P6SM SCT050=

USA.gov is the U.S. government's official web portal to all federal, state and local government web resources and services.